createdAt,value
2023-02-12T00:00:57.273Z,5.05
2023-02-12T00:06:01.046Z,7.03
2023-02-12T00:11:10.905Z,6.67
2023-02-12T00:16:16.136Z,7.32
2023-02-12T00:21:17.674Z,6.65
2023-02-12T00:26:21.119Z,5.30
2023-02-12T00:31:28.655Z,4.00
2023-02-12T00:36:31.687Z,8.60
2023-02-12T00:41:33.225Z,8.40
2023-02-12T00:46:34.839Z,8.50
2023-02-12T00:51:36.355Z,8.52
2023-02-12T00:56:37.826Z,8.25
2023-02-12T01:01:39.409Z,16.00
2023-02-12T01:06:40.934Z,12.25
2023-02-12T01:11:42.428Z,10.90
2023-02-12T01:16:44.048Z,17.60
2023-02-12T01:21:46.285Z,12.65
2023-02-12T01:26:47.867Z,11.88
2023-02-12T01:31:49.530Z,15.02
2023-02-12T01:36:51.127Z,17.17
2023-02-12T01:41:52.592Z,18.45
2023-02-12T01:47:02.853Z,13.13
2023-02-12T01:52:21.156Z,14.07
2023-02-12T01:57:24.514Z,19.42
2023-02-12T02:02:26.732Z,17.17
2023-02-12T02:07:28.459Z,17.67
2023-02-12T02:12:49.346Z,15.82
2023-02-12T02:18:11.177Z,22.25
2023-02-12T02:23:26.865Z,19.35
2023-02-12T02:28:52.066Z,22.83
2023-02-12T02:34:05.902Z,22.70
2023-02-12T02:39:21.343Z,14.30
2023-02-12T02:44:32.596Z,24.25
2023-02-12T02:49:40.428Z,21.17
2023-02-12T02:54:50.066Z,40.33
2023-02-12T02:59:58.280Z,21.90
2023-02-12T03:05:07.110Z,31.92
2023-02-12T03:10:17.118Z,19.67
2023-02-12T03:15:47.657Z,14.95
2023-02-12T03:20:55.431Z,18.73
2023-02-12T03:26:08.448Z,16.52
2023-02-12T03:31:16.049Z,19.63
2023-02-12T03:36:17.498Z,26.02
2023-02-12T03:41:36.372Z,22.83
2023-02-12T03:46:50.641Z,22.10
2023-02-12T03:51:52.156Z,28.55
2023-02-12T03:57:16.379Z,28.27
2023-02-12T04:07:20.787Z,47.88
2023-02-12T04:12:38.759Z,38.42
2023-02-12T04:17:55.332Z,33.88
2023-02-12T04:23:06.167Z,56.75
2023-02-12T04:28:28.272Z,38.08
2023-02-12T04:33:39.158Z,53.08
2023-02-12T04:38:52.207Z,39.75
2023-02-12T04:43:53.694Z,36.75
2023-02-12T04:48:58.252Z,51.35
2023-02-12T04:59:01.173Z,53.03
2023-02-12T05:04:04.584Z,50.40
2023-02-12T05:09:07.280Z,42.33
2023-02-12T05:14:08.935Z,39.03
2023-02-12T05:19:11.173Z,37.50
2023-02-12T05:24:12.620Z,29.30
2023-02-12T05:29:14.078Z,36.00
2023-02-12T05:34:15.540Z,44.33
2023-02-12T05:39:17.109Z,41.78
2023-02-12T05:44:18.544Z,45.92
2023-02-12T05:49:19.983Z,38.85
2023-02-12T05:54:21.496Z,33.83
2023-02-12T05:59:24.020Z,45.35
2023-02-12T06:04:28.231Z,44.42
2023-02-12T06:09:29.706Z,47.13
2023-02-12T06:14:32.081Z,43.58
2023-02-12T06:19:33.978Z,59.85
2023-02-12T06:24:37.082Z,34.17
2023-02-12T06:29:38.554Z,39.30
2023-02-12T06:34:40.804Z,42.33
2023-02-12T06:39:42.276Z,47.75
2023-02-12T06:44:43.848Z,38.45
2023-02-12T06:49:45.356Z,41.60
2023-02-12T06:54:47.043Z,35.33
2023-02-12T06:59:49.682Z,31.85
2023-02-12T07:04:51.203Z,41.35
2023-02-12T07:09:52.658Z,36.72
2023-02-12T07:14:54.078Z,48.20
2023-02-12T07:19:55.513Z,41.45
2023-02-12T07:24:56.999Z,33.00
2023-02-12T07:29:58.437Z,51.20
2023-02-12T07:35:00.109Z,43.65
2023-02-12T07:40:01.879Z,33.05
2023-02-12T07:45:03.468Z,48.67
2023-02-12T07:50:07.173Z,43.22
2023-02-12T07:55:08.831Z,41.03
2023-02-12T08:00:11.904Z,33.38
2023-02-12T08:05:13.372Z,41.78
2023-02-12T08:10:14.953Z,36.30
2023-02-12T08:15:16.550Z,42.00
2023-02-12T08:20:18.052Z,33.13
2023-02-12T08:25:19.476Z,35.20
2023-02-12T08:30:20.986Z,36.38
2023-02-12T08:35:22.495Z,44.22
2023-02-12T08:40:23.931Z,38.17
2023-02-12T08:45:25.399Z,27.75
2023-02-12T08:50:26.904Z,34.25
2023-02-12T08:55:28.453Z,36.63
2023-02-12T09:00:29.937Z,32.38
2023-02-12T09:05:31.398Z,29.27
2023-02-12T09:10:32.908Z,36.00
2023-02-12T09:15:38.667Z,29.65
2023-02-12T09:20:42.423Z,33.65
2023-02-12T09:25:45.928Z,32.97
2023-02-12T09:30:47.820Z,21.10
2023-02-12T09:35:50.246Z,24.58
2023-02-12T09:41:16.052Z,24.15
2023-02-12T09:46:39.789Z,17.20
2023-02-12T09:51:45.448Z,14.27
2023-02-12T09:56:52.084Z,20.48
2023-02-12T10:01:53.595Z,18.50
2023-02-12T10:07:08.102Z,16.90
2023-02-12T10:12:28.582Z,17.27
2023-02-12T10:17:42.037Z,21.77
2023-02-12T10:22:56.917Z,12.00
2023-02-12T10:28:02.676Z,14.35
2023-02-12T10:33:07.674Z,11.13
2023-02-12T10:38:19.998Z,9.05
2023-02-12T10:43:21.472Z,7.10
2023-02-12T10:48:29.677Z,9.57
2023-02-12T10:53:35.983Z,11.63
2023-02-12T10:59:03.728Z,11.32
2023-02-12T11:04:23.561Z,11.02
2023-02-12T11:09:30.899Z,10.07
2023-02-12T11:14:33.576Z,11.57
2023-02-12T11:19:36.014Z,8.60
2023-02-12T11:24:38.581Z,10.25
2023-02-12T11:29:40.358Z,8.85
2023-02-12T11:34:41.983Z,9.20
2023-02-12T11:39:48.340Z,8.85
2023-02-12T11:44:55.584Z,9.18
2023-02-12T11:50:03.843Z,7.38
2023-02-12T11:55:18.474Z,8.70
2023-02-12T12:00:27.688Z,11.70
2023-02-12T12:05:36.288Z,8.25
2023-02-12T12:10:45.108Z,6.32
2023-02-12T12:16:08.867Z,7.38
2023-02-12T12:21:20.624Z,6.82
2023-02-12T12:26:26.518Z,6.50
2023-02-12T12:31:37.946Z,5.63
2023-02-12T12:37:04.325Z,5.55
2023-02-12T12:42:36.582Z,4.35
2023-02-12T12:47:55.317Z,5.32
2023-02-12T12:53:11.179Z,5.18
2023-02-12T12:58:34.408Z,3.47
2023-02-12T13:03:43.517Z,5.28
2023-02-12T13:09:08.715Z,3.47
2023-02-12T13:14:25.599Z,4.38
2023-02-12T13:19:42.511Z,4.55
2023-02-12T13:24:50.583Z,4.75
2023-02-12T13:30:04.133Z,4.10
2023-02-12T13:35:07.241Z,4.17
2023-02-12T13:40:15.759Z,3.97
2023-02-12T13:45:18.095Z,2.75
2023-02-12T13:51:01.000Z,3.60
2023-02-12T13:56:27.886Z,4.28
2023-02-12T14:01:41.870Z,6.03
2023-02-12T14:07:06.741Z,4.28
2023-02-12T14:12:15.963Z,4.50
2023-02-12T14:17:29.659Z,3.22
2023-02-12T14:22:31.107Z,7.15
2023-02-12T14:27:35.791Z,6.90
2023-02-12T14:32:55.845Z,11.90
2023-02-12T14:38:00.184Z,8.48
2023-02-12T14:43:03.750Z,8.70
2023-02-12T14:48:05.455Z,9.18
2023-02-12T14:53:29.555Z,6.78
2023-02-12T14:58:32.513Z,6.03
2023-02-12T15:03:38.871Z,3.90
2023-02-12T15:08:45.764Z,5.32
2023-02-12T15:14:12.990Z,5.18
2023-02-12T15:19:26.610Z,8.73
2023-02-12T15:24:28.189Z,8.32
2023-02-12T15:29:36.202Z,10.40
2023-02-12T15:34:40.082Z,8.75
2023-02-12T15:39:44.631Z,10.10
2023-02-12T15:44:46.155Z,11.27
2023-02-12T15:49:47.850Z,10.63
2023-02-12T15:54:49.780Z,10.00
2023-02-12T15:59:53.131Z,12.02
2023-02-12T16:04:59.283Z,13.00
2023-02-12T16:10:02.176Z,13.52
2023-02-12T16:15:05.298Z,11.57
2023-02-12T16:20:15.703Z,16.42
2023-02-12T16:25:33.423Z,18.30
2023-02-12T16:30:38.853Z,21.80
2023-02-12T16:35:40.336Z,21.45
2023-02-12T16:40:41.910Z,19.45
2023-02-12T16:45:43.770Z,19.20
2023-02-12T16:50:56.424Z,21.10
2023-02-12T16:55:59.324Z,23.15
2023-02-12T17:01:03.777Z,22.15
2023-02-12T17:06:05.404Z,20.52
2023-02-12T17:11:07.853Z,18.42
2023-02-12T17:16:12.752Z,25.23
2023-02-12T17:21:24.955Z,21.98
2023-02-12T17:26:26.472Z,25.50
2023-02-12T17:31:29.461Z,21.10
2023-02-12T17:36:31.311Z,24.85
2023-02-12T17:41:33.110Z,24.98
2023-02-12T17:46:34.590Z,23.40
2023-02-12T17:51:36.062Z,19.80
2023-02-12T17:56:37.526Z,21.27
2023-02-12T18:01:40.905Z,21.92
2023-02-12T18:06:42.400Z,24.90
2023-02-12T18:11:44.023Z,21.30
2023-02-12T18:16:45.568Z,20.52
2023-02-12T18:21:47.683Z,21.25
2023-02-12T18:26:50.419Z,25.63
2023-02-12T18:31:54.388Z,25.58
2023-02-12T18:36:55.935Z,23.85
2023-02-12T18:41:57.425Z,24.98
2023-02-12T18:46:59.948Z,21.98
2023-02-12T18:52:02.082Z,27.30
2023-02-12T18:57:03.667Z,24.92
2023-02-12T19:02:05.932Z,22.70
2023-02-12T19:07:07.607Z,24.73
2023-02-12T19:12:09.104Z,24.92
2023-02-12T19:17:10.619Z,20.42
2023-02-12T19:22:12.120Z,17.17
2023-02-12T19:27:13.740Z,23.75
2023-02-12T19:32:15.311Z,21.02
2023-02-12T19:37:16.840Z,19.17
2023-02-12T19:42:18.339Z,15.68
2023-02-12T19:47:20.093Z,17.80
2023-02-12T19:52:21.626Z,18.17
2023-02-12T19:57:23.165Z,17.70
2023-02-12T20:02:24.684Z,15.40
2023-02-12T20:07:26.192Z,17.60
2023-02-12T20:12:27.707Z,16.70
2023-02-12T20:17:29.167Z,15.00
2023-02-12T20:22:30.671Z,12.80
2023-02-12T20:27:33.287Z,13.38
2023-02-12T20:32:34.753Z,13.05
2023-02-12T20:37:36.404Z,12.85
2023-02-12T20:42:38.011Z,16.30
2023-02-12T20:47:39.503Z,14.18
2023-02-12T20:52:41.626Z,15.43
2023-02-12T20:57:43.179Z,16.65
2023-02-12T21:02:44.685Z,15.15
2023-02-12T21:07:46.162Z,12.90
2023-02-12T21:12:47.866Z,16.60
2023-02-12T21:17:49.414Z,13.43
2023-02-12T21:22:50.885Z,15.73
2023-02-12T21:27:52.302Z,12.77
2023-02-12T21:32:54.131Z,17.23
2023-02-12T21:37:55.670Z,15.55
2023-02-12T21:42:57.890Z,13.82
2023-02-12T21:47:59.303Z,15.30
2023-02-12T21:53:00.721Z,13.00
2023-02-12T21:58:02.320Z,17.67
2023-02-12T22:03:03.770Z,18.77
2023-02-12T22:08:05.937Z,19.88
2023-02-12T22:13:07.463Z,14.32
2023-02-12T22:18:08.956Z,16.30
2023-02-12T22:23:10.630Z,13.48
2023-02-12T22:28:12.130Z,16.55
2023-02-12T22:33:13.611Z,20.73
2023-02-12T22:38:15.126Z,17.23
2023-02-12T22:43:16.584Z,17.30
2023-02-12T22:48:18.070Z,17.42
2023-02-12T22:53:19.617Z,22.40
2023-02-12T22:58:21.140Z,16.83
2023-02-12T23:03:22.583Z,19.52
2023-02-12T23:08:24.057Z,16.15
2023-02-12T23:13:29.975Z,15.73
2023-02-12T23:18:32.230Z,17.52
2023-02-12T23:23:33.784Z,19.02
2023-02-12T23:28:35.327Z,15.10
2023-02-12T23:33:36.908Z,12.77
2023-02-12T23:38:38.403Z,15.10
2023-02-12T23:43:39.842Z,12.82
2023-02-12T23:48:41.310Z,13.00
2023-02-12T23:53:42.706Z,12.88
2023-02-12T23:58:44.236Z,12.80
